Time;durP1;ratioP1;P1;durP2;ratioP2;P2;SDS_P1;SDS_P2;PMS_P1;PMS_P2;Temp;Humidity;BMP_temperature;BMP_pressure;BME280_temperature;BME280_humidity;BME280_pressure;Samples;Min_cycle;Max_cycle;Signal;HPM_P1;HPM_P2
2021/12/14 00:00:20;;;;;;;18.27;11.18;;;6.40;59.70;;;;;;5033544;28;20484;-85
2021/12/14 00:02:48;;;;;;;16.83;10.52;;;6.40;59.70;;;;;;5032578;28;20093;-84
2021/12/14 00:05:15;;;;;;;18.02;10.57;;;6.40;59.80;;;;;;5034192;28;20036;-86
2021/12/14 00:07:42;;;;;;;17.23;10.63;;;6.40;59.60;;;;;;5028809;28;20041;-86
2021/12/14 00:10:42;;;;;;;19.23;11.27;;;6.40;59.70;;;;;;5018490;28;20037;-79
2021/12/14 00:13:41;;;;;;;18.60;10.55;;;6.40;59.60;;;;;;5032613;28;20072;-85
2021/12/14 00:15:50;;;;;;;15.88;10.88;;;6.40;59.60;;;;;;5031155;28;20045;-77
2021/12/14 00:18:17;;;;;;;17.13;10.77;;;6.40;59.60;;;;;;5034658;28;20036;-84
2021/12/14 00:20:56;;;;;;;18.25;11.05;;;6.40;59.50;;;;;;5035508;28;20030;-90
2021/12/14 00:26:12;;;;;;;17.58;10.75;;;6.40;59.60;;;;;;5034277;28;20649;-83
2021/12/14 00:28:38;;;;;;;18.58;10.55;;;6.40;59.60;;;;;;5034881;28;20483;-89
2021/12/14 00:31:10;;;;;;;16.83;10.82;;;6.40;59.60;;;;;;5034301;28;20060;-90
2021/12/14 00:33:37;;;;;;;18.02;10.30;;;6.40;59.60;;;;;;5035728;28;20179;-85
2021/12/14 00:36:07;;;;;;;18.13;11.05;;;6.40;59.60;;;;;;5017723;28;20075;-88
2021/12/14 00:38:35;;;;;;;18.65;10.98;;;6.40;59.50;;;;;;5019380;28;20043;-86
2021/12/14 00:41:13;;;;;;;19.48;11.32;;;6.40;59.40;;;;;;5036511;28;20022;-83
2021/12/14 00:43:39;;;;;;;17.10;10.68;;;6.40;59.60;;;;;;5029244;28;20036;-88
2021/12/14 00:46:06;;;;;;;19.13;10.27;;;6.40;59.60;;;;;;5043938;28;20010;-82
2021/12/14 00:48:32;;;;;;;16.98;10.32;;;6.40;59.60;;;;;;5020283;28;20128;-81
2021/12/14 00:51:00;;;;;;;17.48;10.73;;;6.40;59.70;;;;;;5033776;28;20072;-81
2021/12/14 00:53:28;;;;;;;16.13;10.07;;;6.40;59.60;;;;;;5034797;28;20061;-85
2021/12/14 00:55:56;;;;;;;18.20;10.95;;;6.40;59.50;;;;;;5032039;28;20029;-87
2021/12/14 00:58:23;;;;;;;16.40;10.35;;;6.40;59.50;;;;;;5018321;28;20053;-87
2021/12/14 01:00:59;;;;;;;17.20;10.10;;;6.40;59.50;;;;;;5013882;28;20059;-78
2021/12/14 01:03:27;;;;;;;17.00;10.05;;;6.40;59.60;;;;;;5015622;28;20032;-87
2021/12/14 01:05:55;;;;;;;17.30;10.80;;;6.40;59.60;;;;;;5016475;28;20079;-86
2021/12/14 01:08:25;;;;;;;19.40;10.73;;;6.30;59.40;;;;;;5013517;28;20037;-81
2021/12/14 01:11:04;;;;;;;18.77;11.23;;;6.40;59.50;;;;;;5032202;28;20064;-80
2021/12/14 01:13:34;;;;;;;16.05;10.65;;;6.40;59.60;;;;;;5016673;28;20052;-86
2021/12/14 01:16:35;;;;;;;16.65;10.65;;;6.40;59.60;;;;;;5018492;28;20030;-88
2021/12/14 01:19:15;;;;;;;15.23;9.48;;;6.40;59.40;;;;;;5020814;28;20038;-84
2021/12/14 01:25:00;;;;;;;16.75;10.40;;;6.40;59.40;;;;;;5035589;28;20029;-88
2021/12/14 01:27:37;;;;;;;19.63;10.02;;;6.40;59.50;;;;;;5036598;28;20034;-83
2021/12/14 01:30:13;;;;;;;15.68;10.05;;;6.40;60.00;;;;;;5016372;28;20463;-87
2021/12/14 01:32:43;;;;;;;17.30;10.65;;;6.30;59.80;;;;;;5035626;28;20113;-87
2021/12/14 01:35:13;;;;;;;20.35;10.65;;;6.40;59.40;;;;;;5032861;28;20043;-78
2021/12/14 01:37:47;;;;;;;17.58;10.75;;;6.40;59.40;;;;;;5041433;28;20049;-84
2021/12/14 01:40:30;;;;;;;21.58;11.27;;;6.40;59.40;;;;;;5034532;28;20053;-86
2021/12/14 01:42:58;;;;;;;19.10;10.55;;;6.30;59.40;;;;;;5041449;28;20033;-85
2021/12/14 01:45:25;;;;;;;19.23;10.35;;;6.30;59.40;;;;;;5015771;28;20068;-87
2021/12/14 01:47:55;;;;;;;20.52;10.65;;;6.30;59.50;;;;;;5033478;28;20040;-84
2021/12/14 01:50:33;;;;;;;18.08;11.05;;;6.40;59.60;;;;;;5032080;28;20618;-82
2021/12/14 01:53:20;;;;;;;20.23;11.10;;;6.30;59.40;;;;;;5032949;28;20103;-88
2021/12/14 01:55:53;;;;;;;19.33;10.73;;;6.40;59.50;;;;;;5002787;28;20093;-87
2021/12/14 01:58:22;;;;;;;18.75;11.10;;;6.30;59.50;;;;;;5022144;28;20093;-86
2021/12/14 02:00:55;;;;;;;17.50;10.18;;;6.40;59.50;;;;;;5040287;28;20032;-85
2021/12/14 02:03:33;;;;;;;18.25;10.57;;;6.40;59.50;;;;;;5034231;28;20105;-84
2021/12/14 02:05:59;;;;;;;16.63;11.05;;;6.40;59.40;;;;;;5018899;28;20067;-82
2021/12/14 02:08:29;;;;;;;19.05;11.30;;;6.40;59.40;;;;;;5031724;28;20031;-84
2021/12/14 02:10:58;;;;;;;17.20;10.20;;;6.40;59.30;;;;;;5036673;28;20097;-86
2021/12/14 02:13:29;;;;;;;20.35;11.60;;;6.40;59.40;;;;;;5022402;28;20021;-88
2021/12/14 02:15:56;;;;;;;19.40;10.70;;;6.40;59.40;;;;;;5020397;28;20026;-88
2021/12/14 02:18:28;;;;;;;16.70;10.77;;;6.30;59.30;;;;;;5022146;28;20076;-83
2021/12/14 02:20:59;;;;;;;18.20;10.88;;;6.40;59.40;;;;;;5019723;28;20056;-88
2021/12/14 02:23:26;;;;;;;17.48;10.50;;;6.30;59.30;;;;;;5024126;28;20081;-85
2021/12/14 02:25:55;;;;;;;20.35;11.10;;;6.40;59.40;;;;;;5023206;28;20179;-87
2021/12/14 02:28:22;;;;;;;19.25;12.10;;;6.30;59.40;;;;;;5020136;28;20033;-86
2021/12/14 02:30:52;;;;;;;20.00;11.07;;;6.30;59.40;;;;;;5036349;28;20033;-90
2021/12/14 02:33:25;;;;;;;18.00;10.90;;;6.30;59.40;;;;;;5000487;28;20637;-87
2021/12/14 02:35:53;;;;;;;20.27;11.50;;;6.30;59.30;;;;;;5036690;28;20044;-84
2021/12/14 02:38:22;;;;;;;18.90;10.55;;;6.30;59.30;;;;;;5035007;28;20032;-86
2021/12/14 02:41:08;;;;;;;18.55;10.75;;;6.30;59.30;;;;;;5020073;28;20033;-86
2021/12/14 02:43:55;;;;;;;17.38;10.05;;;6.30;59.30;;;;;;5018667;28;20041;-84
2021/12/14 02:46:35;;;;;;;17.67;10.73;;;6.30;59.20;;;;;;5042133;28;20381;-85
2021/12/14 02:49:05;;;;;;;17.50;10.70;;;6.30;59.30;;;;;;5036696;28;20478;-86
2021/12/14 02:51:45;;;;;;;16.35;10.10;;;6.30;59.20;;;;;;5034974;28;20234;-82
2021/12/14 02:54:26;;;;;;;17.88;10.35;;;6.30;59.20;;;;;;5017764;28;20148;-85
2021/12/14 02:57:10;;;;;;;15.88;9.65;;;6.30;59.10;;;;;;5035003;28;20041;-84
2021/12/14 02:59:40;;;;;;;17.35;9.80;;;6.30;59.20;;;;;;5000158;28;20033;-86
2021/12/14 03:02:11;;;;;;;14.40;9.35;;;6.30;59.20;;;;;;5034976;28;20579;-84
2021/12/14 03:04:48;;;;;;;17.52;9.27;;;6.30;59.20;;;;;;5034427;28;20033;-86
2021/12/14 03:07:16;;;;;;;16.65;9.57;;;6.30;59.10;;;;;;5041402;28;20092;-86
2021/12/14 03:12:42;;;;;;;17.38;9.82;;;6.30;59.00;;;;;;5037632;28;20038;-85
2021/12/14 03:15:22;;;;;;;18.58;9.82;;;6.30;59.10;;;;;;5015322;28;20128;-83
2021/12/14 03:17:51;;;;;;;13.90;8.90;;;6.30;59.20;;;;;;5034376;28;20089;-86
2021/12/14 03:20:30;;;;;;;16.63;9.73;;;6.30;59.00;;;;;;5016878;28;20073;-87
2021/12/14 03:23:07;;;;;;;15.13;9.02;;;6.30;59.20;;;;;;5034200;28;20033;-86
2021/12/14 03:25:36;;;;;;;17.30;9.32;;;6.30;59.60;;;;;;5035682;28;20503;-85
2021/12/14 03:28:03;;;;;;;16.05;8.93;;;6.30;59.10;;;;;;5015743;28;20029;-81
2021/12/14 03:30:36;;;;;;;16.92;8.98;;;6.30;59.00;;;;;;5019510;28;20033;-88
2021/12/14 03:33:17;;;;;;;16.80;10.07;;;6.30;59.00;;;;;;5036494;28;20048;-88
2021/12/14 03:35:44;;;;;;;19.17;10.27;;;6.30;59.00;;;;;;5015715;28;20090;-81
2021/12/14 03:38:20;;;;;;;16.05;9.60;;;6.30;59.10;;;;;;5004898;28;20132;-86
2021/12/14 03:40:54;;;;;;;18.92;9.85;;;6.30;59.00;;;;;;5041579;28;20156;-86
2021/12/14 03:43:20;;;;;;;16.08;9.55;;;6.20;58.90;;;;;;5020620;28;20022;-84
2021/12/14 03:45:49;;;;;;;16.27;9.45;;;6.30;59.00;;;;;;5041508;28;20040;-83
2021/12/14 03:48:15;;;;;;;17.77;10.25;;;6.30;59.10;;;;;;5033912;28;20036;-82
2021/12/14 03:50:42;;;;;;;16.67;10.10;;;6.30;59.00;;;;;;5015363;28;20036;-83
2021/12/14 03:53:10;;;;;;;16.08;9.43;;;6.30;59.00;;;;;;5019587;28;20025;-82
2021/12/14 03:55:43;;;;;;;16.50;9.90;;;6.30;59.00;;;;;;5015958;28;20056;-84
2021/12/14 03:58:17;;;;;;;16.38;9.60;;;6.30;59.00;;;;;;5014909;28;20060;-83
2021/12/14 04:00:52;;;;;;;23.23;11.07;;;6.30;59.00;;;;;;5033233;28;20867;-82
2021/12/14 04:03:22;;;;;;;19.70;10.63;;;6.30;59.00;;;;;;5034284;28;20033;-84
2021/12/14 04:06:08;;;;;;;18.90;10.40;;;6.20;59.10;;;;;;5033652;28;20044;-80
2021/12/14 04:08:35;;;;;;;15.95;9.38;;;6.20;59.00;;;;;;5020443;28;20041;-82
2021/12/14 04:11:05;;;;;;;18.30;10.90;;;6.30;59.00;;;;;;5019617;28;20033;-83
2021/12/14 04:13:35;;;;;;;20.15;11.15;;;6.30;59.20;;;;;;5035025;28;20041;-80
2021/12/14 04:16:05;;;;;;;17.65;10.43;;;6.20;59.10;;;;;;5033928;28;20065;-78
2021/12/14 04:18:31;;;;;;;20.30;10.52;;;6.20;59.10;;;;;;5003863;28;20047;-83
2021/12/14 04:21:00;;;;;;;23.38;11.80;;;6.30;59.20;;;;;;5018503;28;20061;-86
2021/12/14 04:23:32;;;;;;;22.33;10.93;;;6.20;59.10;;;;;;5032785;28;20034;-83
2021/12/14 04:26:02;;;;;;;20.17;10.85;;;6.30;59.10;;;;;;5034001;28;20092;-82
2021/12/14 04:28:37;;;;;;;23.90;12.43;;;6.20;59.10;;;;;;5015293;28;20376;-89
2021/12/14 04:31:03;;;;;;;23.88;11.73;;;6.20;59.10;;;;;;5018999;28;20052;-82
2021/12/14 04:33:34;;;;;;;20.13;11.68;;;6.20;59.20;;;;;;5018700;28;20028;-88
2021/12/14 04:36:05;;;;;;;21.80;11.82;;;6.20;59.20;;;;;;5039112;28;20038;-87
2021/12/14 04:38:36;;;;;;;18.45;11.27;;;6.20;59.20;;;;;;5033910;28;20037;-88
2021/12/14 04:52:18;;;;;;;17.45;10.90;;;6.20;59.20;;;;;;5036395;28;20034;-85
2021/12/14 04:54:49;;;;;;;21.48;10.57;;;6.20;59.20;;;;;;5013944;28;20041;-80
2021/12/14 04:57:16;;;;;;;19.50;11.02;;;6.20;59.20;;;;;;5033037;28;20097;-85
2021/12/14 04:59:44;;;;;;;18.55;10.73;;;6.20;59.20;;;;;;5019726;28;20029;-84
2021/12/14 05:02:15;;;;;;;19.65;10.65;;;6.20;59.20;;;;;;5013529;28;20059;-87
2021/12/14 05:05:01;;;;;;;19.25;11.10;;;6.20;59.20;;;;;;5028045;28;20036;-87
2021/12/14 05:09:58;;;;;;;18.80;11.20;;;6.20;59.20;;;;;;5019416;28;20036;-84
2021/12/14 05:12:29;;;;;;;19.02;11.07;;;6.20;59.20;;;;;;5018091;28;20041;-85
2021/12/14 05:15:10;;;;;;;18.88;10.73;;;6.20;59.20;;;;;;5017013;28;20048;-77
2021/12/14 05:17:47;;;;;;;18.45;10.45;;;6.20;59.20;;;;;;5015565;28;20754;-82
2021/12/14 05:20:16;;;;;;;18.80;11.18;;;6.20;59.10;;;;;;5033113;28;20033;-82
2021/12/14 05:22:45;;;;;;;17.23;10.90;;;6.20;59.10;;;;;;5034856;28;20030;-83
2021/12/14 05:25:28;;;;;;;18.02;10.70;;;6.20;59.10;;;;;;5014735;28;20053;-84
2021/12/14 05:28:09;;;;;;;18.40;11.63;;;6.20;59.10;;;;;;5019265;28;20056;-85
2021/12/14 05:30:42;;;;;;;20.58;11.68;;;6.20;59.00;;;;;;5015422;28;20045;-84
2021/12/14 05:33:21;;;;;;;19.48;12.18;;;6.20;59.00;;;;;;5034925;28;20554;-86
2021/12/14 05:35:51;;;;;;;24.65;12.20;;;6.20;59.10;;;;;;5023867;28;20056;-87
2021/12/14 05:38:26;;;;;;;17.80;11.18;;;6.20;59.00;;;;;;5038202;28;20040;-88
2021/12/14 05:43:30;;;;;;;24.15;12.50;;;6.20;59.00;;;;;;5021394;28;20033;-87
2021/12/14 05:46:07;;;;;;;22.17;12.60;;;6.20;59.10;;;;;;5024877;28;20036;-89
2021/12/14 05:48:48;;;;;;;20.95;12.30;;;6.20;59.00;;;;;;5028167;28;20034;-87
2021/12/14 05:51:14;;;;;;;20.20;11.95;;;6.20;59.00;;;;;;5029174;28;20122;-86
2021/12/14 05:53:44;;;;;;;18.48;11.50;;;6.20;59.10;;;;;;5044493;28;20025;-90
2021/12/14 05:56:23;;;;;;;19.90;12.35;;;6.20;59.00;;;;;;5039846;28;20040;-86
2021/12/14 05:58:53;;;;;;;21.05;12.63;;;6.20;59.00;;;;;;5022238;28;20072;-84
2021/12/14 06:01:24;;;;;;;21.10;12.93;;;6.20;59.00;;;;;;5004968;28;20057;-86
2021/12/14 06:04:00;;;;;;;24.75;13.25;;;6.20;59.10;;;;;;5023875;28;20029;-85
2021/12/14 06:06:32;;;;;;;24.70;13.35;;;6.20;59.00;;;;;;5022395;28;20029;-81
2021/12/14 06:09:10;;;;;;;24.55;13.90;;;6.20;59.00;;;;;;5004820;28;20060;-86
2021/12/14 06:11:44;;;;;;;23.45;14.25;;;6.20;58.90;;;;;;5028508;28;20063;-84
2021/12/14 06:14:17;;;;;;;23.35;13.05;;;6.20;59.00;;;;;;5019998;28;20049;-84
2021/12/14 06:16:45;;;;;;;22.13;12.82;;;6.20;59.00;;;;;;5018741;28;20128;-78
2021/12/14 06:19:21;;;;;;;23.45;13.43;;;6.20;59.00;;;;;;5038405;28;20033;-84
2021/12/14 06:21:57;;;;;;;24.42;13.07;;;6.20;59.00;;;;;;5024396;28;20029;-83
2021/12/14 06:24:25;;;;;;;20.25;11.77;;;6.20;59.10;;;;;;5036435;28;20456;-86
2021/12/14 06:26:53;;;;;;;22.48;12.93;;;6.20;58.90;;;;;;5043695;28;20141;-84
2021/12/14 06:29:34;;;;;;;23.10;12.73;;;6.20;59.00;;;;;;5036888;28;20060;-86
2021/12/14 06:32:15;;;;;;;21.40;12.52;;;6.20;58.90;;;;;;5034045;28;20037;-86
2021/12/14 06:34:45;;;;;;;25.90;12.68;;;6.30;59.00;;;;;;5019029;28;20034;-85
2021/12/14 06:40:19;;;;;;;19.17;11.68;;;6.30;58.90;;;;;;4997233;28;20039;-84
2021/12/14 06:42:55;;;;;;;19.80;10.48;;;6.30;58.90;;;;;;4997218;28;20034;-79
2021/12/14 06:45:24;;;;;;;19.60;11.27;;;6.30;58.90;;;;;;5012015;28;20515;-86
2021/12/14 06:47:54;;;;;;;19.13;11.50;;;6.30;58.90;;;;;;4998386;28;20505;-86
2021/12/14 06:50:26;;;;;;;18.15;11.30;;;6.30;58.80;;;;;;5011775;28;20065;-83
2021/12/14 06:52:59;;;;;;;21.02;11.27;;;6.30;58.70;;;;;;5014039;28;20014;-83
2021/12/14 06:56:01;;;;;;;17.98;11.13;;;6.20;58.50;;;;;;4995186;28;20038;-88
2021/12/14 06:58:52;;;;;;;21.80;11.75;;;6.30;58.40;;;;;;5002411;28;20168;-89
2021/12/14 07:01:41;;;;;;;20.13;11.73;;;6.30;58.40;;;;;;5016115;28;20041;-87
2021/12/14 07:04:15;;;;;;;18.88;11.18;;;6.30;58.50;;;;;;4993963;28;20109;-81
2021/12/14 07:06:45;;;;;;;17.45;10.57;;;6.30;58.50;;;;;;5026385;28;20033;-87
2021/12/14 07:09:22;;;;;;;17.88;10.23;;;6.30;58.40;;;;;;4996108;28;20038;-84
2021/12/14 07:12:00;;;;;;;17.98;10.77;;;6.30;58.60;;;;;;4998791;28;20066;-81
2021/12/14 07:14:49;;;;;;;17.50;9.90;;;6.30;59.60;;;;;;4998359;28;20041;-84
2021/12/14 07:17:27;;;;;;;15.77;8.60;;;6.40;60.40;;;;;;4999828;28;20698;-84
2021/12/14 07:19:55;;;;;;;19.23;8.75;;;6.40;61.00;;;;;;5002154;28;20041;-85
2021/12/14 07:22:24;;;;;;;18.95;10.07;;;6.50;61.50;;;;;;5005950;28;20026;-87
2021/12/14 07:25:01;;;;;;;15.82;9.13;;;6.50;61.80;;;;;;5008563;28;20118;-86
2021/12/14 07:27:32;;;;;;;13.23;8.57;;;6.60;62.00;;;;;;5000399;28;20037;-86
2021/12/14 07:30:15;;;;;;;16.05;9.23;;;6.60;62.10;;;;;;4998236;28;20395;-86
2021/12/14 07:32:52;;;;;;;15.77;8.55;;;6.70;62.40;;;;;;4999058;28;20117;-87
2021/12/14 07:35:25;;;;;;;18.02;9.68;;;6.80;62.60;;;;;;4995312;28;20038;-83
2021/12/14 07:37:51;;;;;;;18.52;9.45;;;6.70;62.50;;;;;;5034632;28;20057;-87
2021/12/14 07:40:18;;;;;;;18.63;9.95;;;6.80;62.50;;;;;;5038279;28;20120;-86
2021/12/14 07:42:45;;;;;;;17.33;10.07;;;6.80;62.60;;;;;;5040546;28;20058;-86
2021/12/14 07:45:23;;;;;;;19.40;9.48;;;6.90;62.70;;;;;;5036109;28;20109;-88
2021/12/14 07:47:53;;;;;;;15.27;9.00;;;6.90;62.70;;;;;;5037115;28;20033;-86
2021/12/14 07:50:34;;;;;;;16.50;9.50;;;6.90;62.70;;;;;;5036235;28;20293;-88
2021/12/14 07:53:00;;;;;;;18.30;10.30;;;7.00;62.70;;;;;;5037674;28;20146;-87
2021/12/14 07:55:27;;;;;;;16.55;9.25;;;7.00;62.60;;;;;;5019753;28;20029;-86
2021/12/14 07:57:53;;;;;;;16.50;9.38;;;7.00;62.60;;;;;;5036692;28;20116;-87
2021/12/14 08:00:23;;;;;;;15.63;9.07;;;7.00;62.70;;;;;;5038585;28;20032;-87
2021/12/14 08:02:55;;;;;;;14.35;8.73;;;7.10;62.60;;;;;;5036314;28;20501;-90
2021/12/14 08:05:26;;;;;;;14.57;9.35;;;7.10;62.60;;;;;;5021492;28;20026;-85
2021/12/14 08:08:09;;;;;;;16.80;8.57;;;7.10;62.60;;;;;;5040112;28;20495;-86
2021/12/14 08:10:41;;;;;;;19.98;9.85;;;7.10;62.60;;;;;;5035946;28;20048;-87
2021/12/14 08:13:20;;;;;;;22.58;12.45;;;7.10;62.60;;;;;;5033949;28;20139;-81
2021/12/14 08:15:50;;;;;;;25.23;13.30;;;7.20;61.90;;;;;;5018681;28;20029;-82
2021/12/14 08:18:18;;;;;;;25.20;14.20;;;7.10;60.50;;;;;;5034658;28;20029;-82
2021/12/14 08:20:59;;;;;;;27.08;13.65;;;7.00;60.10;;;;;;5002790;28;20063;-81
2021/12/14 08:23:38;;;;;;;27.23;13.73;;;6.90;59.90;;;;;;5033997;28;20100;-82
2021/12/14 08:26:06;;;;;;;22.27;13.60;;;6.80;59.90;;;;;;5036136;28;20087;-82
2021/12/14 08:28:44;;;;;;;22.17;12.90;;;6.70;59.90;;;;;;5034448;28;20041;-82
2021/12/14 08:31:10;;;;;;;21.75;12.68;;;6.70;60.00;;;;;;5017275;28;20053;-81
2021/12/14 08:33:37;;;;;;;40.60;13.18;;;6.70;60.10;;;;;;5040260;28;20029;-81
2021/12/14 08:36:05;;;;;;;24.25;11.93;;;6.60;60.20;;;;;;5033705;28;20050;-79
2021/12/14 08:38:34;;;;;;;18.27;9.80;;;6.60;60.80;;;;;;5027864;28;20446;-81
2021/12/14 08:41:15;;;;;;;20.17;11.13;;;6.70;65.20;;;;;;5022787;28;20069;-80
2021/12/14 08:43:50;;;;;;;22.98;12.90;;;6.80;65.30;;;;;;5022142;28;20029;-82
2021/12/14 08:46:37;;;;;;;22.05;12.27;;;6.90;63.40;;;;;;5039475;28;20033;-80
2021/12/14 08:49:06;;;;;;;22.80;12.32;;;6.90;61.90;;;;;;5032611;28;20053;-83
2021/12/14 08:51:40;;;;;;;23.20;12.45;;;6.90;61.30;;;;;;5038224;28;20029;-80
2021/12/14 08:54:29;;;;;;;25.05;12.95;;;6.90;60.80;;;;;;5036331;28;20029;-84
2021/12/14 08:57:03;;;;;;;24.27;13.70;;;6.80;60.80;;;;;;5036905;28;20030;-83
2021/12/14 08:59:30;;;;;;;26.20;13.93;;;6.80;60.60;;;;;;5019359;28;20498;-84
2021/12/14 09:01:57;;;;;;;24.92;14.18;;;6.80;60.80;;;;;;5035689;28;20125;-83
2021/12/14 09:04:33;;;;;;;24.77;14.02;;;6.70;60.30;;;;;;5042005;28;20031;-85
2021/12/14 09:07:12;;;;;;;26.80;14.30;;;6.60;60.00;;;;;;5038660;28;20095;-85
2021/12/14 09:09:39;;;;;;;26.58;13.77;;;6.60;59.80;;;;;;5041634;28;20037;-85
2021/12/14 09:12:20;;;;;;;27.38;14.77;;;6.50;59.60;;;;;;5038884;28;20033;-84
2021/12/14 09:14:48;;;;;;;23.00;13.90;;;6.40;59.60;;;;;;5039132;28;20072;-81
2021/12/14 09:17:17;;;;;;;19.90;12.05;;;6.40;60.00;;;;;;5042175;28;20053;-82
2021/12/14 09:19:57;;;;;;;26.27;12.75;;;6.40;61.00;;;;;;5035677;28;20092;-81
2021/12/14 09:22:27;;;;;;;25.50;13.20;;;6.50;62.10;;;;;;5038595;28;20063;-81
2021/12/14 09:24:54;;;;;;;21.63;13.07;;;6.60;62.60;;;;;;5025833;28;20059;-81
2021/12/14 09:27:23;;;;;;;20.92;12.18;;;6.70;62.10;;;;;;5041257;28;20029;-80
2021/12/14 09:29:50;;;;;;;20.20;12.38;;;6.80;61.80;;;;;;5041395;28;20038;-81
2021/12/14 09:32:22;;;;;;;21.77;13.23;;;6.80;61.20;;;;;;5039308;28;20056;-79
2021/12/14 09:34:48;;;;;;;23.17;13.63;;;6.80;60.80;;;;;;5041895;28;20047;-81
2021/12/14 09:37:15;;;;;;;23.05;13.70;;;6.90;60.40;;;;;;5041141;28;20068;-84
2021/12/14 09:39:51;;;;;;;25.75;14.05;;;6.90;60.00;;;;;;5037425;28;20120;-81
2021/12/14 09:42:22;;;;;;;24.65;13.65;;;6.90;60.40;;;;;;5019371;28;20037;-82
2021/12/14 09:44:51;;;;;;;23.35;13.88;;;6.90;59.60;;;;;;5037446;28;20025;-82
2021/12/14 09:47:21;;;;;;;24.20;14.00;;;6.90;59.50;;;;;;5038002;28;20035;-82
2021/12/14 09:49:49;;;;;;;21.13;12.65;;;6.90;59.40;;;;;;5023869;28;20048;-81
2021/12/14 09:52:21;;;;;;;22.35;13.38;;;6.80;59.90;;;;;;5037931;28;20037;-84
2021/12/14 09:54:48;;;;;;;23.73;13.82;;;6.80;59.30;;;;;;5036736;28;20044;-83
2021/12/14 09:57:29;;;;;;;23.63;13.73;;;6.80;59.20;;;;;;5040040;28;20048;-84
2021/12/14 09:59:59;;;;;;;25.88;13.10;;;6.80;59.30;;;;;;5036209;28;20037;-83
2021/12/14 10:02:38;;;;;;;23.00;13.38;;;6.80;60.20;;;;;;5036842;28;20045;-76
2021/12/14 10:05:16;;;;;;;23.55;13.95;;;6.80;60.80;;;;;;5015224;28;20072;-82
2021/12/14 10:07:42;;;;;;;23.42;14.18;;;6.70;60.40;;;;;;5035896;28;20511;-84
2021/12/14 10:10:13;;;;;;;26.42;15.23;;;6.70;60.00;;;;;;5036126;28;20061;-81
2021/12/14 10:12:51;;;;;;;25.73;14.55;;;6.70;59.70;;;;;;5017884;28;20033;-81
2021/12/14 10:15:29;;;;;;;28.23;14.98;;;6.70;59.60;;;;;;5034139;28;20033;-80
2021/12/14 10:18:00;;;;;;;24.27;14.15;;;6.70;59.40;;;;;;5034723;28;20397;-81
2021/12/14 10:20:36;;;;;;;27.67;14.32;;;6.70;59.40;;;;;;5036555;28;20041;-78
2021/12/14 10:23:04;;;;;;;29.60;15.82;;;6.70;59.30;;;;;;5037574;28;20037;-82
2021/12/14 10:25:32;;;;;;;24.00;13.80;;;6.70;59.20;;;;;;5033286;28;20040;-83
2021/12/14 10:27:58;;;;;;;27.17;15.45;;;6.70;59.00;;;;;;5035665;28;20038;-81
2021/12/14 10:30:38;;;;;;;26.80;15.73;;;6.60;58.90;;;;;;5035736;28;20041;-79
2021/12/14 10:33:05;;;;;;;27.52;14.90;;;6.60;58.90;;;;;;5037051;28;20041;-81
2021/12/14 10:35:40;;;;;;;25.50;15.43;;;6.60;58.90;;;;;;5037540;28;20203;-83
2021/12/14 10:38:23;;;;;;;26.52;15.85;;;6.60;58.90;;;;;;5034367;28;20120;-82
2021/12/14 10:43:42;;;;;;;27.17;16.63;;;6.50;58.90;;;;;;5037347;28;20029;-83
2021/12/14 10:46:28;;;;;;;29.15;16.40;;;6.50;58.80;;;;;;5038358;28;20038;-82
2021/12/14 10:48:55;;;;;;;;;;;6.50;58.90;;;;;;5019957;28;20029;-82
2021/12/14 10:51:26;;;;;;;;;;;6.50;58.80;;;;;;5008941;28;19962;-83
2021/12/14 10:53:54;;;;;;;30.83;17.70;;;6.50;58.70;;;;;;5035682;28;20019;-81
2021/12/14 10:56:24;;;;;;;31.10;17.60;;;6.50;58.70;;;;;;5042755;28;20431;-78
2021/12/14 10:58:53;;;;;;;31.92;17.30;;;6.40;58.70;;;;;;5036557;28;20021;-81
2021/12/14 11:01:30;;;;;;;30.20;18.17;;;6.40;58.70;;;;;;5018930;28;20030;-81
2021/12/14 11:04:00;;;;;;;28.58;17.35;;;6.40;58.70;;;;;;5038091;28;20036;-78
2021/12/14 11:06:29;;;;;;;29.95;18.35;;;6.40;58.70;;;;;;5020607;28;20033;-82
2021/12/14 11:11:38;;;;;;;35.63;20.30;;;6.40;58.70;;;;;;5034456;28;20037;-84
2021/12/14 11:14:12;;;;;;;29.75;18.42;;;6.40;58.70;;;;;;5035968;28;20029;-84
2021/12/14 11:19:34;;;;;;;37.65;19.13;;;6.40;58.60;;;;;;5034333;28;20034;-83
2021/12/14 11:22:31;;;;;;;32.08;19.50;;;6.40;58.60;;;;;;5035435;28;20061;-86
2021/12/14 11:25:01;;;;;;;34.33;20.08;;;6.40;58.50;;;;;;5024976;28;20252;-85
2021/12/14 11:27:32;;;;;;;35.30;20.58;;;6.30;58.40;;;;;;5042437;28;20041;-78
2021/12/14 11:30:32;;;;;;;34.70;19.23;;;6.30;58.40;;;;;;5035052;28;20072;-81
2021/12/14 11:33:21;;;;;;;35.00;20.17;;;6.30;58.40;;;;;;5025259;28;20037;-82
2021/12/14 11:35:50;;;;;;;31.40;20.05;;;6.30;58.40;;;;;;5034810;28;20496;-84
2021/12/14 11:38:40;;;;;;;38.22;21.25;;;6.40;58.40;;;;;;5037602;28;20076;-85
2021/12/14 11:41:28;;;;;;;33.47;19.98;;;6.30;58.30;;;;;;5033301;28;20034;-82
2021/12/14 11:44:11;;;;;;;36.25;19.02;;;6.40;58.60;;;;;;5027372;28;20045;-84
2021/12/14 11:46:52;;;;;;;41.47;21.05;;;6.40;59.70;;;;;;5035398;28;21350;-87
2021/12/14 11:49:21;;;;;;;34.03;20.48;;;6.30;59.50;;;;;;5018758;28;20037;-85
2021/12/14 11:52:10;;;;;;;35.20;20.52;;;6.30;59.40;;;;;;5035256;28;20113;-82
2021/12/14 11:54:59;;;;;;;33.63;20.55;;;6.30;59.30;;;;;;5041795;28;20045;-86
2021/12/14 11:57:39;;;;;;;35.67;21.20;;;6.30;59.10;;;;;;5035925;28;20048;-81
2021/12/14 12:00:23;;;;;;;37.50;20.60;;;6.30;59.00;;;;;;5036168;28;20036;-80
2021/12/14 12:02:49;;;;;;;35.08;21.58;;;6.30;59.00;;;;;;5021100;28;20068;-80
2021/12/14 12:05:31;;;;;;;35.88;21.38;;;6.30;58.90;;;;;;5019370;28;20026;-89
2021/12/14 12:11:05;;;;;;;34.67;21.20;;;6.30;58.70;;;;;;5019008;28;20115;-83
2021/12/14 12:13:39;;;;;;;35.30;21.02;;;6.30;58.70;;;;;;5002903;28;20471;-86
2021/12/14 12:16:28;;;;;;;33.33;19.67;;;6.30;58.60;;;;;;5032997;28;20910;-85
2021/12/14 12:19:14;;;;;;;33.30;20.70;;;6.30;58.60;;;;;;5015945;28;20037;-82
2021/12/14 12:21:45;;;;;;;;;;;6.30;58.60;;;;;;5017756;28;20041;-90
2021/12/14 12:24:42;;;;;;;35.88;21.23;;;6.20;59.00;;;;;;5018127;28;20372;-86
2021/12/14 12:27:16;;;;;;;33.80;20.42;;;6.30;58.50;;;;;;5034187;28;20042;-84
2021/12/14 12:29:43;;;;;;;34.35;21.08;;;6.20;58.30;;;;;;5024522;28;20021;-88
2021/12/14 12:32:19;;;;;;;35.97;21.75;;;6.20;58.30;;;;;;5035467;28;20144;-82
2021/12/14 12:34:45;;;;;;;;;;;6.20;58.40;;;;;;5036370;28;20026;-84
2021/12/14 12:37:14;;;;;;;39.35;22.40;;;6.20;58.30;;;;;;5037496;28;19921;-92
2021/12/14 12:39:55;;;;;;;36.97;21.40;;;6.20;58.20;;;;;;5039663;28;20104;-88
2021/12/14 12:42:23;;;;;;;34.88;20.58;;;6.20;58.30;;;;;;5019397;28;20045;-88
2021/12/14 12:44:49;;;;;;;36.53;21.70;;;6.20;58.20;;;;;;5040551;28;20033;-82
2021/12/14 12:47:21;;;;;;;36.88;21.35;;;6.20;58.20;;;;;;5020777;28;20064;-86
2021/12/14 12:49:51;;;;;;;37.03;22.27;;;6.20;58.10;;;;;;5015206;28;20032;-89
2021/12/14 12:52:30;;;;;;;34.35;20.73;;;6.20;58.10;;;;;;5037558;28;20638;-90
2021/12/14 12:55:05;;;;;;;32.85;20.30;;;6.20;58.20;;;;;;5035894;28;20511;-90
2021/12/14 12:57:41;;;;;;;35.92;20.73;;;6.20;58.20;;;;;;5036059;28;20038;-87
2021/12/14 13:00:19;;;;;;;;;;;6.20;58.20;;;;;;5014901;28;20033;-82
2021/12/14 13:03:07;;;;;;;34.55;20.17;;;6.20;58.20;;;;;;5011992;28;19917;-81
2021/12/14 13:05:37;;;;;;;34.22;19.75;;;6.10;58.10;;;;;;5036122;28;20112;-80
2021/12/14 13:08:24;;;;;;;32.30;19.02;;;6.10;58.10;;;;;;5018486;28;20538;-84
2021/12/14 13:11:00;;;;;;;30.35;17.55;;;6.20;58.30;;;;;;4999238;28;20053;-87
2021/12/14 13:13:49;;;;;;;29.02;18.15;;;6.20;59.40;;;;;;5034491;28;20067;-84
2021/12/14 13:16:23;;;;;;;30.13;18.42;;;6.30;60.80;;;;;;5017115;28;20103;-84
2021/12/14 13:19:11;;;;;;;30.45;17.48;;;6.30;60.40;;;;;;5035356;28;20033;-80
2021/12/14 13:21:50;;;;;;;31.77;18.38;;;6.30;60.10;;;;;;5036024;28;20029;-85
2021/12/14 13:24:27;;;;;;;29.10;17.35;;;6.30;59.70;;;;;;5014208;28;20037;-84
2021/12/14 13:26:59;;;;;;;28.98;17.52;;;6.40;59.70;;;;;;5017823;28;20037;-82
2021/12/14 13:29:37;;;;;;;30.30;17.55;;;6.30;59.40;;;;;;5002110;28;20049;-80
2021/12/14 13:32:18;;;;;;;27.58;17.83;;;6.30;59.30;;;;;;5018460;28;20071;-86
2021/12/14 13:34:49;;;;;;;30.20;18.17;;;6.30;59.20;;;;;;5035794;28;20030;-85
2021/12/14 13:37:27;;;;;;;28.83;16.83;;;6.30;59.20;;;;;;5021579;28;20108;-82
2021/12/14 13:39:54;;;;;;;33.50;18.67;;;6.30;59.20;;;;;;4997489;28;20026;-83
2021/12/14 13:42:34;;;;;;;32.22;18.10;;;6.30;59.20;;;;;;4997581;28;20029;-84
2021/12/14 13:45:00;;;;;;;27.88;16.80;;;6.30;59.00;;;;;;5012188;28;20034;-86
2021/12/14 13:47:28;;;;;;;29.55;18.23;;;6.30;59.00;;;;;;4997143;28;20044;-83
2021/12/14 13:49:58;;;;;;;30.33;17.95;;;6.30;59.00;;;;;;4994461;28;20065;-85
2021/12/14 13:52:24;;;;;;;31.48;18.02;;;6.30;58.90;;;;;;4995263;28;20058;-84